Time;durP1;ratioP1;P1;durP2;ratioP2;P2;SDS_P1;SDS_P2;PMS_P1;PMS_P2;Temp;Humidity;BMP_temperature;BMP_pressure;BME280_temperature;BME280_humidity;BME280_pressure;Samples;Min_cycle;Max_cycle;Signal;HPM_P1;HPM_P2
2022/09/21 00:00:53;;;;;;;3.77;1.70;;;6.70;99.90;;;;;;5066620;23;20481;-69
2022/09/21 00:02:55;;;;;;;3.07;2.07;;;6.60;99.90;;;;;;5067960;23;20173;-70
2022/09/21 00:04:55;;;;;;;7.00;2.00;;;6.50;99.90;;;;;;5067336;23;20158;-70
2022/09/21 00:06:56;;;;;;;4.07;1.80;;;6.40;99.90;;;;;;5067514;23;20390;-70
2022/09/21 00:08:57;;;;;;;2.93;1.90;;;6.40;99.90;;;;;;5067692;23;20162;-69
2022/09/21 00:10:58;;;;;;;2.30;1.80;;;6.30;99.90;;;;;;5066792;23;20186;-70
2022/09/21 00:13:01;;;;;;;2.50;1.90;;;6.20;99.90;;;;;;5067842;23;20163;-69
2022/09/21 00:15:02;;;;;;;4.30;2.03;;;6.30;99.90;;;;;;5067597;23;20919;-69
2022/09/21 00:17:03;;;;;;;2.50;1.77;;;6.30;99.90;;;;;;5067379;23;20386;-69
2022/09/21 00:19:04;;;;;;;3.80;1.80;;;6.20;99.90;;;;;;5067557;23;20655;-69
2022/09/21 00:21:11;;;;;;;2.33;1.87;;;6.10;99.90;;;;;;5067440;23;20182;-69
2022/09/21 00:23:12;;;;;;;4.27;2.07;;;6.10;99.90;;;;;;5067762;23;20396;-69
2022/09/21 00:25:13;;;;;;;2.30;1.80;;;6.10;99.90;;;;;;5067508;23;20428;-69
2022/09/21 00:27:14;;;;;;;2.50;2.10;;;6.10;99.90;;;;;;5067622;23;20253;-69
2022/09/21 00:29:15;;;;;;;3.50;2.40;;;6.00;99.90;;;;;;5068096;23;20875;-69
2022/09/21 00:31:17;;;;;;;3.93;2.10;;;6.00;99.90;;;;;;5066698;23;20666;-69
2022/09/21 00:33:18;;;;;;;3.47;2.20;;;6.00;99.90;;;;;;5067379;23;20693;-69
2022/09/21 00:35:18;;;;;;;3.10;2.27;;;6.00;99.90;;;;;;5068098;23;20425;-69
2022/09/21 00:37:19;;;;;;;5.27;2.40;;;5.90;99.90;;;;;;5067671;23;20154;-69
2022/09/21 00:39:20;;;;;;;6.57;2.40;;;5.90;99.90;;;;;;5041633;23;20241;-69
2022/09/21 00:41:21;;;;;;;6.30;2.93;;;5.80;99.90;;;;;;5066568;23;20233;-69
2022/09/21 00:43:22;;;;;;;4.13;2.20;;;5.80;99.90;;;;;;5041482;23;20171;-69
2022/09/21 00:45:22;;;;;;;5.73;2.70;;;5.70;99.90;;;;;;5067352;23;20165;-69
2022/09/21 00:47:41;;;;;;;3.43;2.37;;;5.70;99.90;;;;;;5067390;23;20539;-69
2022/09/21 00:49:46;;;;;;;4.80;2.20;;;5.60;99.90;;;;;;5067048;23;20165;-69
2022/09/21 00:51:48;;;;;;;5.37;2.20;;;5.70;99.90;;;;;;5040935;23;20488;-69
2022/09/21 00:53:55;;;;;;;3.20;2.30;;;5.70;99.90;;;;;;5067168;23;20476;-69
2022/09/21 00:55:57;;;;;;;3.50;2.20;;;5.70;99.90;;;;;;5067207;23;20432;-69
2022/09/21 00:58:03;;;;;;;3.63;2.00;;;5.50;99.90;;;;;;5067669;23;20414;-69
2022/09/21 01:00:08;;;;;;;2.57;1.93;;;5.60;99.90;;;;;;5066989;23;20832;-69
2022/09/21 01:02:08;;;;;;;4.70;2.23;;;5.60;99.90;;;;;;5065998;23;20408;-69
2022/09/21 01:04:10;;;;;;;4.10;2.30;;;5.70;99.90;;;;;;5067073;23;20402;-69
2022/09/21 01:06:16;;;;;;;3.67;2.30;;;5.80;99.90;;;;;;5067433;23;20173;-69
2022/09/21 01:08:19;;;;;;;3.90;2.20;;;5.80;99.90;;;;;;5067347;23;20789;-69
2022/09/21 01:10:21;;;;;;;4.27;2.93;;;5.80;99.90;;;;;;5066271;23;20410;-69
2022/09/21 01:13:03;;;;;;;4.27;2.37;;;5.80;99.90;;;;;;5067206;23;20413;-69
2022/09/21 01:15:31;;;;;;;2.87;2.33;;;5.70;99.90;;;;;;5040854;23;20475;-68
2022/09/21 01:17:37;;;;;;;3.30;2.03;;;5.70;99.90;;;;;;5067318;23;20404;-69
2022/09/21 01:19:52;;;;;;;3.27;2.40;;;5.70;99.90;;;;;;5067553;23;20472;-69
2022/09/21 01:21:59;;;;;;;6.63;2.63;;;5.70;99.90;;;;;;5066577;23;20413;-69
2022/09/21 01:24:11;;;;;;;5.53;2.50;;;5.60;99.90;;;;;;5040999;23;20710;-69
2022/09/21 01:26:34;;;;;;;6.00;2.37;;;5.60;99.90;;;;;;5067472;23;21061;-69
2022/09/21 01:28:53;;;;;;;4.67;2.40;;;5.60;99.90;;;;;;5065824;23;20489;-68
2022/09/21 01:30:59;;;;;;;5.43;2.50;;;5.60;99.90;;;;;;5065885;23;20394;-68
2022/09/21 01:33:13;;;;;;;3.20;2.47;;;5.50;99.90;;;;;;5066937;23;20561;-68
2022/09/21 01:35:34;;;;;;;5.53;2.83;;;5.50;99.90;;;;;;5067021;23;20426;-68
2022/09/21 01:37:42;;;;;;;3.07;1.90;;;5.40;99.90;;;;;;5066974;23;20408;-68
2022/09/21 01:39:47;;;;;;;5.63;2.23;;;5.20;99.90;;;;;;5066774;23;20408;-68
2022/09/21 01:41:51;;;;;;;2.33;1.90;;;5.10;99.90;;;;;;5066164;23;20409;-68
2022/09/21 01:44:21;;;;;;;4.63;2.60;;;5.10;99.90;;;;;;5067009;23;20400;-68
2022/09/21 01:46:27;;;;;;;4.83;2.40;;;5.00;99.90;;;;;;5065506;23;20415;-68
2022/09/21 01:48:34;;;;;;;3.97;2.50;;;4.90;99.90;;;;;;5066996;23;21050;-69
2022/09/21 01:50:43;;;;;;;9.20;2.47;;;4.80;99.90;;;;;;5066055;23;20375;-69
2022/09/21 01:53:03;;;;;;;5.07;2.10;;;4.80;99.90;;;;;;5066804;23;20472;-69
2022/09/21 01:55:11;;;;;;;3.27;2.57;;;4.70;99.90;;;;;;5066918;23;20468;-69
2022/09/21 01:57:41;;;;;;;3.10;2.30;;;4.60;99.90;;;;;;5066841;23;20881;-69
2022/09/21 01:59:59;;;;;;;5.57;2.87;;;4.60;99.90;;;;;;5053304;23;20474;-68
2022/09/21 02:02:08;;;;;;;4.07;2.60;;;4.50;99.90;;;;;;5065907;23;20413;-69
2022/09/21 02:04:11;;;;;;;4.97;3.17;;;4.50;99.90;;;;;;5066631;23;20476;-69
2022/09/21 02:06:12;;;;;;;5.23;2.77;;;4.40;99.90;;;;;;5066677;23;20489;-69
2022/09/21 02:08:13;;;;;;;4.83;2.80;;;4.40;99.90;;;;;;5066553;23;20724;-68
2022/09/21 02:10:42;;;;;;;6.30;2.83;;;4.40;99.90;;;;;;5065685;23;20403;-68
2022/09/21 02:12:43;;;;;;;4.37;2.70;;;4.40;99.90;;;;;;5038094;23;20211;-68
2022/09/21 02:14:44;;;;;;;5.40;3.10;;;4.40;99.90;;;;;;5066087;23;20458;-69
2022/09/21 02:17:01;;;;;;;4.70;2.90;;;4.30;99.90;;;;;;5066495;23;20216;-68
2022/09/21 02:19:38;;;;;;;3.83;2.60;;;4.30;99.90;;;;;;5066629;23;20401;-69
2022/09/21 02:21:47;;;;;;;6.17;3.00;;;4.20;99.90;;;;;;5039483;23;20408;-68
2022/09/21 02:24:02;;;;;;;5.10;2.97;;;4.20;99.90;;;;;;5066246;23;20464;-69
2022/09/21 02:26:14;;;;;;;7.87;3.33;;;4.20;99.90;;;;;;5066256;23;20380;-69
2022/09/21 02:28:39;;;;;;;7.83;2.97;;;4.20;99.90;;;;;;5066243;23;20381;-69
2022/09/21 02:30:50;;;;;;;3.63;2.80;;;4.10;99.90;;;;;;5059810;23;20396;-69
2022/09/21 02:33:11;;;;;;;5.40;2.97;;;4.10;99.90;;;;;;5065822;23;20408;-69
2022/09/21 02:35:22;;;;;;;3.77;2.50;;;4.10;99.90;;;;;;5040332;23;20464;-69
2022/09/21 02:37:31;;;;;;;3.60;2.47;;;4.10;99.90;;;;;;5040355;23;20826;-69
2022/09/21 02:39:43;;;;;;;3.70;2.60;;;4.10;99.90;;;;;;5064581;23;20423;-69
2022/09/21 02:42:00;;;;;;;4.37;2.80;;;4.00;99.90;;;;;;5065554;23;20404;-69
2022/09/21 02:44:06;;;;;;;5.53;2.83;;;4.00;99.90;;;;;;5065999;23;20399;-69
2022/09/21 02:46:34;;;;;;;4.67;2.73;;;4.10;99.90;;;;;;5065484;23;20402;-68
2022/09/21 02:48:40;;;;;;;7.23;3.30;;;4.00;99.90;;;;;;5065140;23;20433;-68
2022/09/21 02:50:46;;;;;;;6.27;3.33;;;3.90;99.90;;;;;;5065493;23;20814;-68
2022/09/21 02:52:47;;;;;;;5.80;3.23;;;3.80;99.90;;;;;;5066409;23;20383;-68
2022/09/21 02:54:50;;;;;;;6.27;3.00;;;3.80;99.90;;;;;;5066160;23;20426;-68
2022/09/21 02:56:53;;;;;;;4.60;3.37;;;3.80;99.90;;;;;;5065898;23;20247;-68
2022/09/21 02:58:56;;;;;;;4.23;3.03;;;3.70;99.90;;;;;;5040185;23;20393;-67
2022/09/21 03:00:58;;;;;;;3.83;2.60;;;3.80;99.90;;;;;;5065320;23;20413;-68
2022/09/21 03:02:58;;;;;;;5.30;3.33;;;3.80;99.90;;;;;;5066122;23;20458;-68
2022/09/21 03:04:59;;;;;;;6.80;2.93;;;3.80;99.90;;;;;;5040380;23;20458;-68
2022/09/21 03:06:59;;;;;;;7.17;3.33;;;3.80;99.90;;;;;;5066009;23;20164;-69
2022/09/21 03:09:00;;;;;;;8.37;3.20;;;3.80;99.90;;;;;;5066159;23;20191;-68
2022/09/21 03:11:01;;;;;;;5.70;3.53;;;3.70;99.90;;;;;;5065563;23;20182;-68
2022/09/21 03:13:02;;;;;;;5.07;2.70;;;3.60;99.90;;;;;;5040260;23;20296;-68
2022/09/21 03:15:03;;;;;;;7.87;3.50;;;3.60;99.90;;;;;;5065782;23;20457;-68
2022/09/21 03:17:04;;;;;;;7.80;3.30;;;3.50;99.90;;;;;;5041179;23;20192;-68
2022/09/21 03:19:05;;;;;;;6.73;3.40;;;3.50;99.90;;;;;;5066182;23;20400;-68
2022/09/21 03:21:05;;;;;;;5.20;2.90;;;3.50;99.90;;;;;;5065507;23;20611;-68
2022/09/21 03:23:06;;;;;;;4.07;2.87;;;3.50;99.90;;;;;;5066224;23;20237;-71
2022/09/21 03:25:11;;;;;;;6.17;3.60;;;3.50;99.90;;;;;;5065678;23;20166;-69
2022/09/21 03:27:18;;;;;;;6.63;3.27;;;3.40;99.90;;;;;;5067879;23;20144;-68
2022/09/21 03:29:18;;;;;;;5.47;3.07;;;3.40;99.90;;;;;;5067310;23;20390;-68
2022/09/21 03:31:19;;;;;;;8.40;3.07;;;3.40;99.90;;;;;;5066534;23;20414;-69
2022/09/21 03:33:20;;;;;;;6.03;3.73;;;3.40;99.90;;;;;;5065533;23;20170;-69
2022/09/21 03:35:22;;;;;;;7.37;3.43;;;3.40;99.90;;;;;;5067695;23;20763;-69
2022/09/21 03:37:23;;;;;;;7.33;3.30;;;3.50;99.90;;;;;;5067467;23;20163;-69
2022/09/21 03:39:24;;;;;;;6.00;3.60;;;3.50;99.90;;;;;;5067355;23;20760;-69
2022/09/21 03:41:25;;;;;;;5.43;3.27;;;3.40;99.90;;;;;;5066984;23;20174;-69
2022/09/21 03:43:25;;;;;;;7.30;4.03;;;3.40;99.90;;;;;;5067605;23;20205;-69
2022/09/21 03:45:26;;;;;;;7.83;3.70;;;3.40;99.90;;;;;;5067522;23;20193;-69
2022/09/21 03:47:28;;;;;;;7.60;3.00;;;3.30;99.90;;;;;;5067651;23;20166;-69
2022/09/21 03:49:28;;;;;;;6.27;3.13;;;3.30;99.90;;;;;;5067876;23;20564;-69
2022/09/21 03:51:30;;;;;;;5.47;3.07;;;3.30;99.90;;;;;;5066792;23;20418;-69
2022/09/21 03:53:30;;;;;;;5.83;3.67;;;3.30;99.90;;;;;;5067475;23;20228;-69
2022/09/21 03:55:32;;;;;;;5.70;3.80;;;3.30;99.90;;;;;;5067394;23;21014;-69
2022/09/21 03:57:33;;;;;;;6.43;3.57;;;3.30;99.90;;;;;;5067298;23;20217;-69
2022/09/21 03:59:34;;;;;;;7.27;3.33;;;3.30;99.90;;;;;;5067268;23;20423;-69
2022/09/21 04:01:35;;;;;;;5.90;3.53;;;3.30;99.90;;;;;;5066128;23;20434;-69
2022/09/21 04:03:36;;;;;;;6.10;3.80;;;3.20;99.90;;;;;;5067244;23;20158;-69
2022/09/21 04:05:38;;;;;;;8.70;3.63;;;3.20;99.90;;;;;;5067416;23;20187;-69
2022/09/21 04:07:39;;;;;;;4.83;3.20;;;3.20;99.90;;;;;;5067139;23;20391;-69
2022/09/21 04:09:40;;;;;;;5.97;3.53;;;3.10;99.90;;;;;;5067423;23;20387;-69
2022/09/21 04:11:41;;;;;;;8.23;3.43;;;3.10;99.90;;;;;;5066562;23;20455;-69
2022/09/21 04:13:42;;;;;;;5.47;3.27;;;3.10;99.90;;;;;;5067162;23;20674;-69
2022/09/21 04:15:43;;;;;;;7.00;3.33;;;3.10;99.90;;;;;;5067120;23;20197;-69
2022/09/21 04:17:43;;;;;;;6.90;3.60;;;3.00;99.90;;;;;;5067129;23;20155;-69
2022/09/21 04:19:44;;;;;;;6.50;3.40;;;3.00;99.90;;;;;;5041162;23;20271;-69
2022/09/21 04:21:45;;;;;;;5.73;3.47;;;3.00;99.90;;;;;;5066368;23;20631;-69
2022/09/21 04:23:45;;;;;;;4.70;3.20;;;3.00;99.90;;;;;;5067288;23;20174;-69
2022/09/21 04:25:50;;;;;;;6.10;3.57;;;3.00;99.90;;;;;;5067028;23;20169;-69
2022/09/21 04:27:51;;;;;;;6.23;3.60;;;2.90;99.90;;;;;;5017325;23;20286;-69
2022/09/21 04:29:52;;;;;;;4.53;3.27;;;2.90;99.90;;;;;;5067078;23;20390;-69
2022/09/21 04:31:52;;;;;;;6.80;3.50;;;2.90;99.90;;;;;;5066323;23;20189;-69
2022/09/21 04:33:54;;;;;;;5.30;3.47;;;2.90;99.90;;;;;;5066808;23;20518;-69
2022/09/21 04:35:55;;;;;;;5.70;3.43;;;2.90;99.90;;;;;;5040964;23;20174;-69
2022/09/21 04:37:55;;;;;;;5.50;3.63;;;2.80;99.90;;;;;;5066218;23;20386;-69
2022/09/21 04:39:56;;;;;;;7.13;3.33;;;2.70;99.90;;;;;;5066595;23;20386;-70
2022/09/21 04:41:57;;;;;;;4.97;3.17;;;2.70;99.90;;;;;;5065845;23;20191;-69
2022/09/21 04:43:58;;;;;;;4.57;2.87;;;2.70;99.90;;;;;;5066294;23;20234;-68
2022/09/21 04:46:07;;;;;;;6.83;3.17;;;2.60;99.90;;;;;;5066330;23;20162;-70
2022/09/21 04:48:07;;;;;;;7.33;3.60;;;2.60;99.90;;;;;;5040690;23;20163;-68
2022/09/21 04:50:08;;;;;;;8.07;3.87;;;2.60;99.90;;;;;;5066212;23;20389;-68
2022/09/21 04:52:09;;;;;;;5.27;3.57;;;2.60;99.90;;;;;;5040542;23;20598;-68
2022/09/21 04:54:09;;;;;;;6.50;3.40;;;2.60;99.90;;;;;;5066395;23;20214;-68
2022/09/21 04:56:13;;;;;;;8.63;4.47;;;2.60;99.90;;;;;;5066430;23;20166;-68
2022/09/21 04:58:14;;;;;;;12.70;4.90;;;2.60;99.90;;;;;;5066633;23;20158;-68
2022/09/21 05:00:14;;;;;;;13.20;4.83;;;2.60;99.90;;;;;;5065774;23;20464;-68
2022/09/21 05:02:15;;;;;;;7.60;4.07;;;2.70;99.90;;;;;;5066561;23;20230;-68
2022/09/21 05:04:15;;;;;;;8.60;4.13;;;2.80;99.90;;;;;;5066550;23;20537;-68
2022/09/21 05:06:16;;;;;;;7.70;4.83;;;2.70;99.90;;;;;;5066585;23;20549;-68
2022/09/21 05:10:01;;;;;;;10.73;4.40;;;2.80;99.90;;;;;;5066590;23;20659;-68
2022/09/21 05:10:38;;;;;;;7.43;4.30;;;2.80;99.90;;;;;;5065643;23;20615;-68
2022/09/21 05:12:38;;;;;;;10.33;4.67;;;2.80;99.90;;;;;;5066957;23;20498;-68
2022/09/21 05:14:39;;;;;;;6.30;3.73;;;2.80;99.90;;;;;;5066521;23;20214;-68
2022/09/21 05:16:40;;;;;;;9.13;4.57;;;2.80;99.90;;;;;;5066787;23;20167;-68
2022/09/21 05:18:41;;;;;;;7.53;4.20;;;2.80;99.90;;;;;;5066665;23;21005;-68
2022/09/21 05:20:41;;;;;;;10.77;4.47;;;2.80;99.90;;;;;;5065640;23;20162;-68
2022/09/21 05:22:42;;;;;;;6.63;4.63;;;2.80;99.90;;;;;;5066665;23;20494;-68
2022/09/21 05:24:42;;;;;;;11.77;4.90;;;2.90;99.90;;;;;;5066375;23;20166;-68
2022/09/21 05:26:43;;;;;;;11.27;4.60;;;2.90;99.90;;;;;;5066256;23;20247;-68
2022/09/21 05:28:43;;;;;;;9.20;4.73;;;2.90;99.90;;;;;;5040467;23;20202;-68
2022/09/21 05:30:55;;;;;;;11.03;4.10;;;2.90;99.90;;;;;;5065120;23;20166;-68
2022/09/21 05:33:03;;;;;;;9.67;5.60;;;2.90;99.90;;;;;;5066123;23;20171;-68
2022/09/21 05:35:28;;;;;;;10.07;5.07;;;3.00;99.90;;;;;;5066321;23;20528;-68
2022/09/21 05:38:08;;;;;;;8.57;4.87;;;3.00;99.90;;;;;;5066248;23;20465;-68
2022/09/21 05:40:10;;;;;;;9.37;5.27;;;2.90;99.90;;;;;;5020709;23;20931;-68
2022/09/21 05:42:11;;;;;;;8.60;4.80;;;3.10;99.90;;;;;;5066204;23;20947;-68
2022/09/21 05:44:13;;;;;;;8.83;4.70;;;3.10;99.90;;;;;;5066033;23;20422;-68
2022/09/21 05:46:38;;;;;;;16.70;7.90;;;3.10;99.90;;;;;;5066569;23;20514;-68
2022/09/21 05:48:41;;;;;;;11.63;5.23;;;3.10;99.90;;;;;;5040128;23;20395;-68
2022/09/21 05:50:50;;;;;;;8.10;5.00;;;3.10;99.90;;;;;;5065547;23;20926;-68
2022/09/21 05:53:17;;;;;;;9.33;4.47;;;3.00;99.90;;;;;;5066172;23;20857;-68
2022/09/21 05:55:45;;;;;;;9.37;4.70;;;3.00;99.90;;;;;;5066118;23;20445;-68
2022/09/21 05:57:57;;;;;;;7.37;4.30;;;3.00;99.90;;;;;;5066359;23;20379;-68
2022/09/21 06:00:20;;;;;;;8.07;4.50;;;3.00;99.90;;;;;;5065902;23;20366;-68
2022/09/21 06:02:45;;;;;;;9.00;4.57;;;3.00;99.90;;;;;;5065925;23;20573;-68
2022/09/21 06:04:48;;;;;;;8.47;4.27;;;3.00;99.90;;;;;;5066087;23;20379;-69
2022/09/21 06:06:48;;;;;;;8.23;4.57;;;3.10;99.90;;;;;;5066157;23;20469;-68
2022/09/21 06:08:49;;;;;;;10.30;4.93;;;3.10;99.90;;;;;;5066048;23;20386;-69
2022/09/21 06:10:50;;;;;;;8.00;4.70;;;3.10;99.90;;;;;;5065416;23;20182;-67
2022/09/21 06:12:51;;;;;;;11.50;5.03;;;3.10;99.90;;;;;;5066527;23;20218;-68
2022/09/21 06:14:52;;;;;;;8.17;4.53;;;3.10;99.90;;;;;;5065967;23;20426;-67
2022/09/21 06:16:52;;;;;;;7.57;4.67;;;3.20;99.90;;;;;;5040298;23;20163;-67
2022/09/21 06:18:53;;;;;;;9.40;5.03;;;3.10;99.90;;;;;;5065997;23;20155;-67
2022/09/21 06:20:53;;;;;;;8.53;5.53;;;3.20;99.90;;;;;;5065132;23;20195;-67
2022/09/21 06:23:08;;;;;;;6.80;4.50;;;3.20;99.90;;;;;;5065994;23;20156;-70
2022/09/21 06:25:09;;;;;;;10.53;5.53;;;3.30;99.90;;;;;;5065853;23;20226;-68
2022/09/21 06:27:10;;;;;;;9.10;5.27;;;3.30;99.90;;;;;;5066025;23;20484;-69
2022/09/21 06:29:10;;;;;;;8.43;5.47;;;3.30;99.90;;;;;;5066069;23;20168;-68
2022/09/21 06:31:11;;;;;;;9.27;5.83;;;3.40;99.90;;;;;;5065287;23;20218;-68
2022/09/21 06:33:11;;;;;;;13.67;6.23;;;3.50;99.90;;;;;;5065923;23;20628;-68
2022/09/21 06:35:12;;;;;;;13.23;6.67;;;3.60;99.90;;;;;;5040094;23;20630;-68
2022/09/21 06:37:13;;;;;;;13.53;6.53;;;3.60;99.90;;;;;;5065827;23;20235;-68
2022/09/21 06:39:13;;;;;;;13.23;7.20;;;3.70;99.90;;;;;;5065861;23;20194;-68
2022/09/21 06:41:14;;;;;;;15.93;7.50;;;3.70;99.90;;;;;;5065404;23;20334;-68
2022/09/21 06:43:15;;;;;;;13.77;6.83;;;3.70;99.90;;;;;;5066083;23;20667;-68
2022/09/21 06:45:16;;;;;;;13.77;6.70;;;3.80;99.90;;;;;;5065792;23;20158;-68
2022/09/21 06:47:16;;;;;;;14.70;7.50;;;3.80;99.90;;;;;;5065911;23;20880;-68
2022/09/21 06:49:17;;;;;;;13.33;8.37;;;3.80;99.90;;;;;;5040267;23;20242;-68
2022/09/21 06:51:19;;;;;;;16.90;7.93;;;3.80;99.90;;;;;;5065241;23;20276;-68
2022/09/21 06:53:20;;;;;;;16.27;7.23;;;3.90;99.90;;;;;;5066029;23;20164;-68
2022/09/21 06:55:20;;;;;;;15.93;8.37;;;3.90;99.90;;;;;;5065787;23;20495;-68
2022/09/21 06:57:22;;;;;;;12.63;7.40;;;3.90;99.90;;;;;;5039805;23;20168;-68
2022/09/21 06:59:23;;;;;;;15.83;7.47;;;4.00;99.90;;;;;;5065896;23;20171;-68
2022/09/21 07:01:24;;;;;;;16.03;7.23;;;4.20;99.90;;;;;;5040393;23;20440;-69
2022/09/21 07:03:24;;;;;;;10.37;6.67;;;4.30;99.90;;;;;;5067233;23;20388;-69
2022/09/21 07:05:25;;;;;;;15.13;7.27;;;4.30;99.90;;;;;;5067290;23;20165;-69
2022/09/21 07:07:29;;;;;;;13.47;6.77;;;4.40;99.90;;;;;;5067367;23;20165;-65
2022/09/21 07:09:29;;;;;;;15.10;7.00;;;4.50;99.90;;;;;;5067116;23;20248;-69
2022/09/21 07:11:30;;;;;;;14.93;6.67;;;4.70;99.90;;;;;;5066568;23;20480;-68
2022/09/21 07:13:30;;;;;;;16.23;5.93;;;4.80;99.90;;;;;;5067556;23;20641;-68
2022/09/21 07:15:32;;;;;;;12.37;6.83;;;4.90;99.90;;;;;;5067237;23;20213;-68
2022/09/21 07:17:38;;;;;;;12.93;6.77;;;5.00;99.90;;;;;;5067668;23;20166;-68
2022/09/21 07:19:38;;;;;;;8.93;5.83;;;5.00;99.90;;;;;;5067387;23;20500;-68
2022/09/21 07:21:39;;;;;;;10.50;5.70;;;5.20;99.90;;;;;;5066897;23;20527;-68
2022/09/21 07:23:39;;;;;;;9.20;5.90;;;5.30;99.90;;;;;;5067222;23;20237;-68
2022/09/21 07:25:41;;;;;;;12.90;5.87;;;5.40;99.90;;;;;;5065801;23;20162;-68
2022/09/21 07:27:42;;;;;;;10.60;5.20;;;5.60;99.90;;;;;;5065301;23;20173;-68
2022/09/21 07:29:42;;;;;;;9.23;5.53;;;5.70;99.90;;;;;;5065435;23;20766;-68
2022/09/21 07:31:47;;;;;;;9.97;4.57;;;5.80;99.90;;;;;;5039160;23;20232;-68
2022/09/21 07:33:47;;;;;;;8.80;4.80;;;5.80;99.90;;;;;;5064964;23;20169;-68
2022/09/21 07:35:57;;;;;;;9.30;4.50;;;6.10;99.90;;;;;;5065297;23;20528;-68
2022/09/21 07:37:59;;;;;;;7.50;5.00;;;6.20;99.90;;;;;;5065497;23;20154;-68
2022/09/21 07:40:01;;;;;;;7.17;4.20;;;6.30;99.90;;;;;;5065841;23;20390;-68
2022/09/21 07:42:02;;;;;;;6.30;3.87;;;6.50;99.90;;;;;;5066486;23;20421;-68
2022/09/21 07:44:03;;;;;;;6.50;4.23;;;6.50;99.90;;;;;;5041443;23;20635;-68
2022/09/21 07:46:04;;;;;;;6.00;3.47;;;6.60;99.90;;;;;;5066952;23;20162;-68
2022/09/21 07:48:05;;;;;;;5.00;3.43;;;6.70;99.90;;;;;;5067196;23;20163;-68
2022/09/21 07:50:06;;;;;;;4.40;3.03;;;6.80;99.90;;;;;;5067185;23;20155;-67
2022/09/21 07:52:07;;;;;;;5.00;3.13;;;6.80;99.90;;;;;;5066318;23;20417;-68
2022/09/21 07:54:09;;;;;;;5.30;3.20;;;6.80;99.90;;;;;;5067142;23;20600;-67
2022/09/21 07:56:15;;;;;;;7.57;3.77;;;7.00;99.90;;;;;;5067196;23;20547;-68
2022/09/21 08:00:36;;;;;;;4.93;2.90;;;7.20;99.90;;;;;;5066491;23;20390;-68
2022/09/21 08:02:37;;;;;;;5.57;2.90;;;7.40;99.90;;;;;;5066882;23;20403;-68
2022/09/21 08:04:37;;;;;;;4.47;2.67;;;7.60;99.90;;;;;;5067095;23;20390;-67
2022/09/21 08:06:41;;;;;;;3.80;3.10;;;7.60;99.90;;;;;;5067411;23;20496;-68
2022/09/21 08:08:41;;;;;;;4.83;2.83;;;7.80;99.90;;;;;;5041109;23;20576;-68
2022/09/21 08:10:42;;;;;;;4.10;2.43;;;8.00;99.90;;;;;;5066189;23;20450;-68
2022/09/21 08:12:43;;;;;;;3.60;2.47;;;8.10;99.90;;;;;;5067040;23;20632;-68
2022/09/21 08:14:43;;;;;;;4.63;2.63;;;8.40;99.90;;;;;;5066820;23;20183;-68
2022/09/21 08:16:46;;;;;;;6.43;2.63;;;8.40;99.90;;;;;;5067105;23;20156;-67
2022/09/21 08:18:46;;;;;;;5.10;2.67;;;8.40;99.90;;;;;;5066984;23;20216;-68
2022/09/21 08:20:59;;;;;;;8.40;3.10;;;8.50;99.90;;;;;;5066162;23;20157;-68
2022/09/21 08:22:59;;;;;;;5.00;2.37;;;8.70;99.90;;;;;;5067327;23;20166;-68
2022/09/21 08:25:00;;;;;;;4.30;2.50;;;8.70;99.90;;;;;;5067159;23;20952;-68
2022/09/21 08:27:01;;;;;;;5.37;2.57;;;9.00;99.90;;;;;;5067036;23;20256;-68
2022/09/21 08:29:02;;;;;;;2.70;1.93;;;9.00;99.70;;;;;;5066950;23;20718;-68
2022/09/21 08:31:09;;;;;;;4.40;2.50;;;9.10;99.90;;;;;;5066149;23;20261;-68
2022/09/21 08:33:09;;;;;;;2.63;2.00;;;9.30;99.90;;;;;;5066922;23;20263;-67
2022/09/21 08:35:10;;;;;;;4.13;2.47;;;9.50;99.90;;;;;;5066732;23;20214;-67
2022/09/21 08:37:10;;;;;;;3.97;2.60;;;9.80;98.00;;;;;;5066947;23;20620;-68
2022/09/21 08:39:11;;;;;;;3.07;1.97;;;9.70;99.10;;;;;;5067127;23;20170;-68
2022/09/21 08:41:32;;;;;;;3.50;2.10;;;9.70;97.00;;;;;;5065908;23;20184;-68
2022/09/21 08:43:42;;;;;;;2.70;1.90;;;9.90;97.90;;;;;;5067044;23;20153;-68
2022/09/21 08:45:44;;;;;;;4.50;1.90;;;10.00;94.00;;;;;;5066879;23;20185;-68
2022/09/21 08:47:52;;;;;;;2.70;2.23;;;10.10;96.20;;;;;;5067047;23;20192;-68
2022/09/21 08:49:57;;;;;;;3.13;2.00;;;10.10;94.10;;;;;;5067139;23;20150;-68
2022/09/21 08:52:04;;;;;;;4.87;2.03;;;10.10;92.20;;;;;;5066189;23;20205;-68
2022/09/21 08:54:42;;;;;;;3.70;1.80;;;10.30;94.00;;;;;;5067027;23;20154;-67
2022/09/21 08:56:42;;;;;;;2.63;1.40;;;10.80;94.20;;;;;;5066826;23;20607;-68
2022/09/21 08:58:43;;;;;;;2.80;1.47;;;11.00;90.80;;;;;;5066946;23;20165;-68
2022/09/21 09:00:44;;;;;;;1.80;1.30;;;10.90;89.30;;;;;;5066022;23;20155;-68
2022/09/21 09:02:54;;;;;;;2.77;1.30;;;10.90;89.60;;;;;;5067182;23;20166;-68
2022/09/21 09:05:14;;;;;;;6.53;1.50;;;10.90;88.60;;;;;;5066675;23;20162;-68
2022/09/21 09:07:46;;;;;;;2.20;1.50;;;10.90;87.30;;;;;;5066624;23;20503;-68
2022/09/21 09:10:12;;;;;;;3.33;1.80;;;11.10;88.30;;;;;;5058061;23;20174;-68
2022/09/21 09:12:49;;;;;;;2.37;1.40;;;11.30;88.10;;;;;;5066473;23;20214;-68
2022/09/21 09:15:14;;;;;;;2.90;1.70;;;11.20;82.00;;;;;;5066662;23;20178;-68
2022/09/21 09:18:01;;;;;;;4.03;1.70;;;11.40;84.70;;;;;;5066583;23;20229;-68
2022/09/21 09:20:14;;;;;;;2.93;1.63;;;11.40;84.70;;;;;;5013447;23;20166;-68
2022/09/21 09:22:22;;;;;;;3.00;1.63;;;11.40;83.30;;;;;;5066502;23;20177;-68
2022/09/21 09:24:37;;;;;;;3.10;1.70;;;11.80;79.60;;;;;;5066097;23;20154;-69
2022/09/21 09:26:54;;;;;;;2.40;1.30;;;12.00;82.80;;;;;;5066571;23;20159;-68
2022/09/21 09:28:59;;;;;;;3.30;1.83;;;12.30;82.70;;;;;;5066223;23;20156;-68
2022/09/21 09:31:21;;;;;;;4.13;1.83;;;12.30;77.60;;;;;;5065578;23;20154;-67
2022/09/21 09:33:39;;;;;;;2.37;1.77;;;12.60;78.70;;;;;;5066361;23;20181;-67
2022/09/21 09:35:46;;;;;;;4.97;1.70;;;12.80;75.30;;;;;;5066273;23;20175;-67
2022/09/21 09:37:49;;;;;;;2.23;1.90;;;13.00;76.10;;;;;;5066776;23;20181;-67
2022/09/21 09:39:54;;;;;;;1.83;1.47;;;12.70;72.50;;;;;;5066252;23;20182;-67
2022/09/21 09:42:14;;;;;;;2.63;1.93;;;13.20;71.80;;;;;;5066151;23;20756;-67
2022/09/21 09:44:17;;;;;;;3.80;1.90;;;13.40;68.40;;;;;;5066426;23;20166;-67
2022/09/21 09:46:24;;;;;;;2.13;1.57;;;13.70;69.60;;;;;;5066132;23;20169;-67
2022/09/21 09:48:38;;;;;;;3.10;1.50;;;13.80;66.60;;;;;;5066499;23;20185;-67
2022/09/21 09:50:40;;;;;;;2.33;1.60;;;14.20;67.40;;;;;;5065545;23;20170;-67
2022/09/21 09:52:42;;;;;;;4.33;1.93;;;13.90;63.60;;;;;;5066883;23;20174;-67
2022/09/21 09:54:43;;;;;;;1.80;1.40;;;13.40;66.30;;;;;;5066351;23;20891;-67
2022/09/21 09:56:44;;;;;;;2.27;1.57;;;12.60;72.90;;;;;;5066258;23;20166;-67
2022/09/21 09:59:02;;;;;;;1.70;1.50;;;12.90;68.60;;;;;;5066413;23;20261;-67
2022/09/21 10:01:03;;;;;;;2.50;1.60;;;12.90;69.50;;;;;;5065447;23;20178;-67
2022/09/21 10:03:17;;;;;;;3.93;2.23;;;14.00;64.80;;;;;;5066390;23;20566;-67
2022/09/21 10:05:37;;;;;;;2.03;1.50;;;15.20;58.90;;;;;;5066825;23;20491;-67
2022/09/21 10:07:47;;;;;;;3.00;1.43;;;15.40;56.20;;;;;;5040997;23;20194;-69
2022/09/21 10:09:47;;;;;;;3.37;1.37;;;15.90;55.00;;;;;;5042480;23;20143;-68
2022/09/21 10:11:48;;;;;;;5.27;1.80;;;16.10;53.00;;;;;;5066050;23;20185;-68
2022/09/21 10:13:52;;;;;;;1.80;1.40;;;16.40;52.70;;;;;;5066371;23;20220;-68
2022/09/21 10:15:57;;;;;;;1.77;1.50;;;17.00;52.50;;;;;;5041032;23;20257;-68
2022/09/21 10:18:23;;;;;;;3.20;1.50;;;17.10;51.20;;;;;;5066513;23;20146;-68
2022/09/21 10:20:24;;;;;;;3.83;1.50;;;17.10;48.90;;;;;;5040116;23;20144;-68
2022/09/21 10:22:25;;;;;;;1.83;1.63;;;17.50;50.60;;;;;;5066597;23;20510;-69
2022/09/21 10:24:39;;;;;;;3.00;1.57;;;17.70;55.00;;;;;;5040614;23;20185;-68
2022/09/21 10:27:06;;;;;;;3.37;1.93;;;18.20;46.80;;;;;;5040899;23;20175;-68
2022/09/21 10:29:22;;;;;;;2.77;1.90;;;16.40;50.70;;;;;;5066424;23;20158;-68
2022/09/21 10:31:26;;;;;;;3.10;1.50;;;16.70;52.10;;;;;;5065981;23;20206;-68
2022/09/21 10:33:26;;;;;;;2.47;1.70;;;16.80;51.70;;;;;;5066503;23;20177;-69
2022/09/21 10:35:27;;;;;;;2.90;1.83;;;18.10;46.60;;;;;;5066196;23;20816;-69
2022/09/21 10:37:36;;;;;;;2.83;1.77;;;18.20;45.80;;;;;;5066563;23;20173;-69
2022/09/21 10:39:45;;;;;;;3.10;1.80;;;17.40;48.10;;;;;;5040698;23;20147;-69
2022/09/21 10:42:02;;;;;;;1.83;1.40;;;17.00;48.80;;;;;;5065893;23;20186;-69
2022/09/21 10:44:13;;;;;;;1.90;1.53;;;16.80;48.50;;;;;;5040693;23;20577;-69
2022/09/21 10:46:14;;;;;;;2.20;1.57;;;16.80;49.60;;;;;;5016679;23;20147;-68
2022/09/21 10:48:17;;;;;;;2.00;1.57;;;17.10;48.70;;;;;;5066179;23;20162;-67
2022/09/21 10:50:36;;;;;;;3.17;1.77;;;17.40;48.50;;;;;;5065315;23;20245;-67
2022/09/21 10:52:42;;;;;;;2.77;1.50;;;17.30;47.20;;;;;;5066285;23;20217;-67
2022/09/21 10:54:43;;;;;;;1.73;1.50;;;16.20;50.30;;;;;;5066314;23;20201;-67
2022/09/21 10:57:02;;;;;;;4.37;1.60;;;16.90;52.00;;;;;;5040777;23;20182;-67
2022/09/21 10:59:12;;;;;;;1.53;1.33;;;17.40;50.90;;;;;;5040704;23;20147;-68
2022/09/21 11:01:22;;;;;;;2.03;1.60;;;17.10;48.10;;;;;;5039770;23;20257;-68
2022/09/21 11:03:29;;;;;;;1.83;1.50;;;18.00;47.50;;;;;;5066693;23;20153;-68